Weather observations for the past three days for
Spencer Municipal Airport
Imperial (Metric)
Date Time (cdt) Wind (mph) Vis. (mi.) Weather Sky Cond. Temperature (ºF) Relative Humidity Wind Chill (°F) Heat Index (°F) Pressure Precipitation (in)
Air Dwpt 6 hour altimeter (in) sea level (mb) 1 hr 3 hr 6 hr
Max. Min.
10 14:53 NW 16 G 35 10.00 Fair CLR 69.1 25 19% 30.11 1019.9
10 13:53 NW 13 G 35 10.00 A Few Clouds FEW120 69.1 24.1 18% 30.11 1019.9
10 12:53 NW 23 G 33 10.00 Fair and Breezy CLR 66.9 25 68 33.1 20% 30.12 1020.2
10 11:53 NW 20 G 31 10.00 Fair CLR 66 27 23% 30.13 1020.7
10 10:53 W 21 G 30 10.00 Fair and Breezy CLR 63 27 26% 30.13 1020.8
10 09:53 W 17 G 26 10.00 Fair CLR 60.1 27 28% 30.14 1020.7
10 08:53 W 13 10.00 Fair CLR 55.9 27 33% 30.14 1020.9
10 07:53 W 6 10.00 Fair CLR 46 30 54% 44 30.14 1021.1
10 06:53 W 5 10.00 Fair CLR 33.1 28 39 28.9 82% 29 30.12 1020.7
10 05:53 Calm 10.00 Fair CLR 30.9 24.1 76% 30.11 1020.3
10 04:53 Calm 10.00 Fair CLR 32 25 75% 30.1 1019.9
10 03:53 SW 6 10.00 Fair CLR 30.9 26.1 82% 26 30.09 1019.6
10 02:53 W 5 10.00 Fair CLR 32 26.1 79% 28 30.07 1018.9
10 01:53 NW 3 10.00 Fair CLR 34 24.1 67% 30.06 1018.6
10 00:53 NW 6 10.00 Fair CLR 39 24.1 60.1 30.9 55% 35 30.06 1018.2
09 23:53 NW 6 10.00 Fair CLR 39.9 23 51% 36 30.04 1017.6
09 22:53 N 6 10.00 Fair CLR 37.9 23 55% 34 30.02 1017.1
09 21:53 N 8 10.00 Fair CLR 48 21.9 36% 45 30 1016.4
09 20:53 N 8 10.00 Fair CLR 50 23 35% 47 29.97 1015.3
09 19:53 N 13 10.00 Fair CLR 55.9 23 28% 29.94 1014.1
09 18:53 N 17 10.00 Fair CLR 59 23 64.9 59 25% 29.92 1013.5
09 17:53 N 21 G 30 10.00 Fair and Breezy CLR 62.1 23 22% 29.9 1012.7
09 16:53 N 22 10.00 Fair and Breezy CLR 63 25 24% 29.88 1012.1
09 15:53 N 16 G 31 10.00 Fair CLR 63 25 24% 29.87 1011.7
09 14:53 NW 17 G 30 10.00 Fair CLR 64 28.9 27% 29.85 1011.1
09 13:53 N 14 G 35 10.00 Fair CLR 62.1 30 30% 29.84 1010.8
09 12:53 N 14 G 28 10.00 Fair CLR 62.1 32 63 51.1 32% 29.84 1010.8
09 11:53 N 16 G 29 10.00 Partly Cloudy SCT095 61 37 41% 29.83 1010.1
09 10:53 N 17 G 25 10.00 A Few Clouds FEW032 60.1 42.1 52% 29.81 1009.4
09 09:53 NW 13 10.00 Overcast BKN075 OVC090 54 42.1 64% 29.8 1009.0
09 08:53 NW 7 10.00 Mostly Cloudy SCT080 BKN100 55.9 42.1 60% 29.76 1007.6
09 07:53 NW 5 10.00 Overcast OVC095 54 39.9 59% 29.76 1007.7
09 06:53 NW 8 10.00 Fair CLR 51.1 34 52 37.9 52% 29.74 1007.0
09 05:53 NW 18 G 32 10.00 Fair CLR 46 30.9 56% 39 29.72 1006.4
09 04:53 SW 5 10.00 Fair CLR 42.1 28.9 60% 40 29.66 1004.2
09 03:53 SW 7 10.00 Fair CLR 39 28.9 67% 35 29.66 1004.5
09 02:53 SW 9 10.00 Fair CLR 41 28.9 62% 36 29.67 1004.6
09 01:53 SW 5 10.00 Fair CLR 41 28.9 62% 38 29.7 1005.5
09 00:53 W 8 10.00 Fair CLR 41 28 71.1 41 60% 36 29.71 1006.1
08 23:53 NW 6 10.00 Fair CLR 48 28 46% 46 29.72 1006.1
08 22:53 NW 6 10.00 Fair CLR 50 28.9 44% 48 29.72 1006.0
08 21:53 N 9 10.00 Fair CLR 57.9 28.9 33% 29.7 1005.3
08 20:53 N 13 10.00 A Few Clouds FEW100 64 33.1 32% 29.67 1004.4
08 19:53 N 9 10.00 Mostly Cloudy BKN110 68 33.1 27% 29.64 1003.5
08 18:53 NW 15 10.00 Fair CLR 71.1 30 77 71.1 22% 29.63 1003.4
08 17:53 W 20 G 29 10.00 Fair CLR 72 28.9 20% 29.63 1003.6
08 16:53 NW 10 G 21 10.00 A Few Clouds FEW110 72 30.9 22% 29.64 1003.6
08 15:53 W 18 G 23 10.00 Partly Cloudy SCT110 75 30 19% 76 29.65 1004.1
08 14:53 W 13 G 26 10.00 Mostly Cloudy BKN100 73 28 19% 29.68 1005.1
08 13:53 W 18 G 36 10.00 A Few Clouds FEW100 73.9 28 18% 29.7 1005.6
08 12:53 W 15 G 24 10.00 Fair CLR 72 26.1 72 37 18% 29.73 1006.6
08 11:53 NW 12 G 22 10.00 Partly Cloudy SCT110 71.1 26.1 19% 29.76 1007.6
08 10:53 NW 15 G 29 10.00 Fair CLR 69.1 25 19% 29.77 1008.2
08 09:53 W 15 G 21 10.00 Mostly Cloudy BKN100 64.9 23 20% 29.78 1008.6
08 08:53 SW 8 10.00 Mostly Cloudy BKN100 57.9 26.1 29% 29.8 1009.3
08 07:53 S 5 10.00 Fair CLR 46.9 28.9 50% 45 29.81 1009.7
08 06:53 Calm 10.00 Fair CLR 37 28.9 41 33.1 73% 29.8 1009.5
08 05:53 Calm 10.00 Fair CLR 33.1 28 82% 29.8 1009.5
08 04:53 Calm 10.00 Fair CLR 37 27 67% 29.8 1009.5
08 03:53 S 3 10.00 Fair CLR 33.1 26.1 75% 29.81 1009.8
08 02:53 Calm 10.00 Fair CLR 36 27 70% 29.81 1009.9
08 01:53 Calm 10.00 Fair CLR 41 25 53% 29.83 1010.4
08 00:53 Calm 10.00 Fair CLR 39 25 63 36 57% 29.83 1010.5
07 23:53 N 7 10.00 Fair CLR 42.1 25 51% 38 29.83 1010.7
07 22:53 Calm 10.00 Fair CLR 44.1 23 43% 29.83 1010.6
07 21:53 Calm 10.00 Fair CLR 46.9 21 36% 29.83 1010.5
07 20:53 W 6 10.00 Fair CLR 48.9 21 33% 47 29.82 1010.3
07 19:53 W 7 10.00 Fair CLR 57.9 24.1 27% 29.8 1009.7
07 18:53 NW 6 10.00 Fair CLR 63 21 64.9 57.9 20% 29.8 1009.6
07 17:53 NW 8 10.00 Fair CLR 64 21.9 20% 29.8 1009.7
07 16:53 Vrbl 5 10.00 Fair CLR 63 21 20% 29.81 1010.1
Date Time (cdt) Wind (mph) Vis. (mi.) Weather Sky Cond. Air Dwpt Max. Min. Relative Humidity Wind Chill (°F) Heat Index (°F) altimeter (in) sea level (mb) 1 hr 3 hr 6 hr
6 hour
Temperature (ºF) Pressure Precipitation (in)